Time;durP1;ratioP1;P1;durP2;ratioP2;P2;SDS_P1;SDS_P2;PMS_P1;PMS_P2;Temp;Humidity;BMP_temperature;BMP_pressure;BME280_temperature;BME280_humidity;BME280_pressure;Samples;Min_cycle;Max_cycle;Signal;HPM_P1;HPM_P2
2023/02/09 00:02:25;;;;;;;15.57;13.07;;;1.00;63.80;;;;;;5013508;28;20209;-85
2023/02/09 00:04:51;;;;;;;17.27;13.03;;;1.00;63.70;;;;;;5016057;28;20227;-85
2023/02/09 00:07:16;;;;;;;17.37;12.90;;;0.90;64.00;;;;;;5031965;28;20244;-86
2023/02/09 00:09:44;;;;;;;15.77;12.93;;;0.90;65.00;;;;;;5033647;28;20592;-85
2023/02/09 00:14:55;;;;;;;17.27;14.43;;;0.80;64.90;;;;;;5036495;28;20252;-86
2023/02/09 00:17:20;;;;;;;15.60;13.27;;;0.80;64.30;;;;;;5036411;28;20201;-84
2023/02/09 00:19:46;;;;;;;18.37;13.93;;;0.80;65.80;;;;;;5037171;28;20239;-87
2023/02/09 00:22:11;;;;;;;16.00;12.37;;;0.70;66.10;;;;;;5041213;28;20209;-88
2023/02/09 00:24:37;;;;;;;17.17;13.63;;;0.80;66.70;;;;;;5053387;28;20212;-83
2023/02/09 00:27:03;;;;;;;19.30;14.03;;;0.80;65.40;;;;;;5053778;28;20177;-88
2023/02/09 00:29:29;;;;;;;13.73;12.20;;;0.70;66.30;;;;;;5041532;28;20209;-85
2023/02/09 00:31:54;;;;;;;16.47;13.30;;;0.60;65.20;;;;;;5033244;28;20220;-85
2023/02/09 00:34:20;;;;;;;17.93;13.23;;;0.40;65.50;;;;;;5037765;28;20200;-86
2023/02/09 00:36:45;;;;;;;16.20;12.10;;;0.20;66.60;;;;;;5024619;28;20190;-87
2023/02/09 00:39:11;;;;;;;16.27;13.23;;;0.10;67.80;;;;;;5017595;28;20189;-87
2023/02/09 00:44:21;;;;;;;16.23;13.10;;;0.10;68.40;;;;;;5016435;28;20192;-85
2023/02/09 00:46:48;;;;;;;15.27;12.93;;;0.10;69.40;;;;;;5017412;28;20205;-85
2023/02/09 00:49:14;;;;;;;16.37;13.23;;;0.00;68.80;;;;;;5017938;28;20177;-87
2023/02/09 00:51:40;;;;;;;16.80;12.47;;;0.10;70.40;;;;;;5034505;28;20223;-86
2023/02/09 00:54:06;;;;;;;14.57;12.43;;;0.20;70.80;;;;;;5038023;28;20197;-87
2023/02/09 00:56:31;;;;;;;14.80;11.67;;;0.20;69.50;;;;;;5028554;28;20177;-86
2023/02/09 00:58:57;;;;;;;19.60;14.73;;;0.10;71.10;;;;;;5016688;28;20412;-85
2023/02/09 01:01:22;;;;;;;17.10;13.87;;;0.00;69.60;;;;;;5014527;28;20292;-87
2023/02/09 01:03:50;;;;;;;19.13;13.93;;;0.00;71.10;;;;;;5013981;28;20205;-86
2023/02/09 01:06:15;;;;;;;22.77;17.43;;;0.10;71.20;;;;;;5019587;28;20427;-85
2023/02/09 01:08:41;;;;;;;15.53;13.30;;;0.20;69.00;;;;;;5019323;28;20196;-87
2023/02/09 01:11:10;;;;;;;19.53;14.17;;;-0.10;71.70;;;;;;5031600;28;20287;-87
2023/02/09 01:13:36;;;;;;;15.83;13.10;;;0.10;71.00;;;;;;5040614;28;20260;-85
2023/02/09 01:16:11;;;;;;;17.60;12.43;;;0.10;70.80;;;;;;5039766;28;20188;-86
2023/02/09 01:18:37;;;;;;;14.53;12.00;;;0.20;70.20;;;;;;5039059;28;20673;-86
2023/02/09 01:21:08;;;;;;;17.83;12.83;;;0.10;69.70;;;;;;5041229;28;20205;-87
2023/02/09 01:23:33;;;;;;;14.13;11.50;;;0.20;70.90;;;;;;5040383;28;20189;-87
2023/02/09 01:26:07;;;;;;;14.50;12.20;;;0.20;71.00;;;;;;5037891;28;20203;-87
2023/02/09 01:28:33;;;;;;;16.60;12.83;;;0.30;70.40;;;;;;5029148;28;20317;-87
2023/02/09 01:30:58;;;;;;;14.27;11.97;;;0.30;69.90;;;;;;5021055;28;20236;-86
2023/02/09 01:33:24;;;;;;;14.93;12.20;;;0.30;69.50;;;;;;5021309;28;20196;-86
2023/02/09 01:35:50;;;;;;;13.67;12.10;;;0.20;70.40;;;;;;5026283;28;20235;-85
2023/02/09 01:38:16;;;;;;;15.60;12.67;;;0.30;70.10;;;;;;5042324;28;20251;-88
2023/02/09 01:40:48;;;;;;;15.50;12.90;;;0.20;69.80;;;;;;5041821;28;20220;-88
2023/02/09 01:43:14;;;;;;;16.17;12.57;;;0.30;69.70;;;;;;5040822;28;20212;-87
2023/02/09 01:45:49;;;;;;;15.10;12.10;;;0.20;69.30;;;;;;5041124;28;20243;-86
2023/02/09 01:48:19;;;;;;;14.20;12.33;;;0.30;69.70;;;;;;5040833;28;20169;-89
2023/02/09 01:50:48;;;;;;;13.20;11.70;;;0.30;69.70;;;;;;5036449;28;20205;-86
2023/02/09 01:53:15;;;;;;;15.10;12.57;;;0.30;70.30;;;;;;5037109;28;20264;-88
2023/02/09 01:55:52;;;;;;;16.50;12.97;;;0.20;70.00;;;;;;5030290;28;20235;-86
2023/02/09 01:58:20;;;;;;;15.20;11.83;;;0.10;69.30;;;;;;5030098;28;20228;-88
2023/02/09 02:00:47;;;;;;;14.73;11.77;;;0.10;70.30;;;;;;5033249;28;20204;-87
2023/02/09 02:03:17;;;;;;;13.73;11.50;;;0.00;70.80;;;;;;5033156;28;20193;-86
2023/02/09 02:05:47;;;;;;;14.20;12.47;;;0.00;70.60;;;;;;5021935;28;20594;-86
2023/02/09 02:08:30;;;;;;;15.77;12.63;;;0.00;70.50;;;;;;5014268;28;20177;-87
2023/02/09 02:10:57;;;;;;;14.43;12.17;;;0.00;70.10;;;;;;5033956;28;20213;-87
2023/02/09 02:13:22;;;;;;;15.17;12.07;;;0.00;71.20;;;;;;5034822;28;20177;-86
2023/02/09 02:16:05;;;;;;;17.07;13.30;;;0.00;70.40;;;;;;5034803;28;20208;-86
2023/02/09 02:19:01;;;;;;;15.17;13.03;;;-0.10;70.10;;;;;;5035589;28;20335;-86
2023/02/09 02:21:30;;;;;;;13.57;11.43;;;-0.10;70.20;;;;;;5034827;28;20695;-88
2023/02/09 02:24:43;;;;;;;17.67;12.30;;;-0.20;71.20;;;;;;5028262;28;20264;-89
2023/02/09 02:27:30;;;;;;;13.87;11.93;;;-0.20;71.40;;;;;;5019521;28;20563;-87
2023/02/09 02:30:29;;;;;;;16.07;12.93;;;-0.30;71.20;;;;;;5034440;28;20204;-88
2023/02/09 02:33:30;;;;;;;14.83;12.37;;;-0.20;71.30;;;;;;5037045;28;20173;-86
2023/02/09 02:36:27;;;;;;;14.00;11.50;;;-0.20;71.40;;;;;;5036224;28;20207;-86
2023/02/09 02:38:53;;;;;;;13.73;11.90;;;-0.20;71.10;;;;;;5028944;28;20192;-87
2023/02/09 02:41:28;;;;;;;13.73;12.00;;;-0.20;71.20;;;;;;5039404;28;20208;-84
2023/02/09 02:44:01;;;;;;;14.43;11.80;;;-0.30;72.10;;;;;;5038910;28;20203;-86
2023/02/09 02:46:31;;;;;;;14.70;12.60;;;-0.30;72.30;;;;;;5036930;28;20208;-88
2023/02/09 02:49:04;;;;;;;13.90;12.43;;;-0.30;72.00;;;;;;5036485;28;20245;-87
2023/02/09 02:51:41;;;;;;;14.33;12.33;;;-0.30;71.80;;;;;;5032806;28;20247;-86
2023/02/09 02:54:16;;;;;;;14.90;12.30;;;-0.30;71.60;;;;;;5034157;28;20777;-88
2023/02/09 02:56:50;;;;;;;14.87;11.63;;;-0.30;72.30;;;;;;5025088;28;20600;-89
2023/02/09 02:59:20;;;;;;;15.57;12.40;;;-0.30;70.90;;;;;;5033466;28;20200;-87
2023/02/09 03:01:54;;;;;;;16.53;12.13;;;-0.60;70.60;;;;;;5033243;28;20721;-84
2023/02/09 03:04:21;;;;;;;13.50;12.10;;;-0.60;71.70;;;;;;5035529;28;20215;-88
2023/02/09 03:06:46;;;;;;;16.87;13.70;;;-0.70;72.30;;;;;;5016961;28;20196;-85
2023/02/09 03:09:12;;;;;;;17.30;13.00;;;-0.70;71.30;;;;;;5016219;28;20666;-84
2023/02/09 03:11:45;;;;;;;16.47;12.13;;;-0.70;72.60;;;;;;5015628;28;20222;-86
2023/02/09 03:14:26;;;;;;;17.43;12.23;;;-0.70;72.80;;;;;;5015151;28;20268;-86
2023/02/09 03:20:23;;;;;;;15.90;12.43;;;-0.60;72.80;;;;;;5021767;28;20200;-87
2023/02/09 03:22:56;;;;;;;14.87;12.10;;;-0.70;72.60;;;;;;5032975;28;20165;-86
2023/02/09 03:25:33;;;;;;;13.90;12.37;;;-0.70;72.50;;;;;;5038425;28;20181;-87
2023/02/09 03:28:08;;;;;;;14.03;12.13;;;-0.70;72.50;;;;;;5041460;28;20223;-87
2023/02/09 03:30:35;;;;;;;15.50;11.97;;;-0.70;72.60;;;;;;5037412;28;20212;-85
2023/02/09 03:33:03;;;;;;;20.83;16.03;;;-0.60;72.50;;;;;;5036639;28;20243;-86
2023/02/09 03:35:40;;;;;;;19.00;14.37;;;-0.60;72.80;;;;;;5036144;28;20184;-88
2023/02/09 03:38:06;;;;;;;15.40;12.73;;;-0.60;72.40;;;;;;5035280;28;20200;-87
2023/02/09 03:40:33;;;;;;;17.53;13.23;;;-0.70;72.80;;;;;;5035168;28;20239;-86
2023/02/09 03:42:58;;;;;;;14.97;12.87;;;-0.70;72.70;;;;;;5035823;28;20268;-84
2023/02/09 03:45:25;;;;;;;16.80;13.03;;;-0.80;72.40;;;;;;5034140;28;20208;-87
2023/02/09 03:47:50;;;;;;;19.30;14.20;;;-0.90;73.00;;;;;;5034569;28;20176;-88
2023/02/09 03:50:16;;;;;;;16.90;13.57;;;-1.00;72.80;;;;;;5033834;28;20181;-88
2023/02/09 03:52:41;;;;;;;17.63;13.73;;;-0.90;73.70;;;;;;5034565;28;20291;-86
2023/02/09 03:55:07;;;;;;;16.00;12.87;;;-0.80;73.10;;;;;;5032148;28;20703;-87
2023/02/09 03:57:34;;;;;;;16.17;12.43;;;-0.80;72.40;;;;;;5019155;28;20185;-87
2023/02/09 04:00:00;;;;;;;15.57;12.97;;;-0.80;73.10;;;;;;5015504;28;20224;-87
2023/02/09 04:02:26;;;;;;;15.40;12.87;;;-0.90;73.40;;;;;;5017998;28;20612;-88
2023/02/09 04:04:52;;;;;;;17.83;14.10;;;-0.90;71.80;;;;;;5021305;28;20211;-86
2023/02/09 04:07:18;;;;;;;15.33;13.27;;;-1.00;73.20;;;;;;5022478;28;20644;-87
2023/02/09 04:09:43;;;;;;;16.90;13.43;;;-1.00;73.60;;;;;;5019649;28;20182;-87
2023/02/09 04:12:09;;;;;;;17.63;13.73;;;-1.00;74.50;;;;;;5021867;28;20216;-86
2023/02/09 04:14:35;;;;;;;16.53;13.50;;;-0.90;73.80;;;;;;5039627;28;20449;-87
2023/02/09 04:17:01;;;;;;;16.30;12.90;;;-0.90;73.20;;;;;;5034883;28;20185;-87
2023/02/09 04:19:26;;;;;;;17.77;13.73;;;-0.90;72.80;;;;;;5037722;28;20203;-87
2023/02/09 04:21:52;;;;;;;17.93;13.57;;;-1.00;73.20;;;;;;5035742;28;20212;-86
2023/02/09 04:24:18;;;;;;;18.00;13.47;;;-1.00;74.40;;;;;;5037514;28;20200;-87
2023/02/09 04:26:44;;;;;;;17.93;12.83;;;-0.90;74.20;;;;;;5042342;28;20191;-87
2023/02/09 04:29:09;;;;;;;15.93;13.93;;;-0.90;73.60;;;;;;5055153;28;20215;-88
2023/02/09 04:31:35;;;;;;;17.43;13.00;;;-1.00;71.80;;;;;;5050004;28;20240;-89
2023/02/09 04:34:01;;;;;;;19.63;14.77;;;-1.20;73.60;;;;;;5053621;28;20185;-86
2023/02/09 04:36:27;;;;;;;22.23;15.23;;;-1.20;74.90;;;;;;5026478;28;20289;-85
2023/02/09 04:38:52;;;;;;;22.30;15.20;;;-1.20;75.20;;;;;;5015007;28;20185;-86
2023/02/09 04:41:18;;;;;;;17.07;13.83;;;-1.10;75.70;;;;;;5031524;28;20212;-88
2023/02/09 04:43:47;;;;;;;22.50;15.30;;;-1.10;75.20;;;;;;5035009;28;20177;-87
2023/02/09 04:46:14;;;;;;;16.70;14.90;;;-1.10;74.10;;;;;;5032201;28;20181;-88
2023/02/09 04:48:40;;;;;;;20.60;15.63;;;-1.20;74.10;;;;;;5032758;28;20204;-89
2023/02/09 04:51:06;;;;;;;22.73;14.87;;;-1.30;73.50;;;;;;5030870;28;20650;-87
2023/02/09 04:53:31;;;;;;;21.30;14.83;;;-1.50;75.00;;;;;;5027310;28;20254;-88
2023/02/09 04:55:57;;;;;;;18.37;14.57;;;-1.70;75.40;;;;;;5030645;28;20184;-87
2023/02/09 05:01:08;;;;;;;17.63;14.73;;;-1.70;77.00;;;;;;5015673;28;20314;-87
2023/02/09 05:03:33;;;;;;;22.70;14.77;;;-1.90;77.40;;;;;;5029667;28;20690;-89
2023/02/09 05:06:02;;;;;;;17.37;14.90;;;-1.90;77.70;;;;;;5022233;28;20193;-86
2023/02/09 05:08:28;;;;;;;15.07;12.60;;;-1.90;78.40;;;;;;5016851;28;20193;-87
2023/02/09 05:10:54;;;;;;;17.30;13.70;;;-1.80;78.60;;;;;;5021474;28;20256;-87
2023/02/09 05:13:21;;;;;;;16.07;14.20;;;-1.70;78.10;;;;;;5026343;28;20185;-88
2023/02/09 05:15:48;;;;;;;17.30;13.40;;;-1.70;78.20;;;;;;5035059;28;20205;-86
2023/02/09 05:18:14;;;;;;;17.53;13.53;;;-1.70;78.00;;;;;;5034463;28;20192;-86
2023/02/09 05:20:42;;;;;;;25.03;16.33;;;-1.60;76.80;;;;;;5026924;28;20228;-87
2023/02/09 05:23:07;;;;;;;18.90;13.60;;;-1.60;76.20;;;;;;5029851;28;20626;-89
2023/02/09 05:25:33;;;;;;;18.57;15.57;;;-1.60;77.30;;;;;;5035344;28;20200;-86
2023/02/09 05:27:59;;;;;;;21.53;15.17;;;-1.60;77.00;;;;;;5037797;28;20185;-87
2023/02/09 05:30:25;;;;;;;17.37;14.80;;;-1.60;76.90;;;;;;5035301;28;20248;-87
2023/02/09 05:32:52;;;;;;;19.67;15.63;;;-1.50;76.20;;;;;;5032694;28;20181;-87
2023/02/09 05:35:17;;;;;;;21.00;15.23;;;-1.50;75.90;;;;;;5031565;28;20184;-86
2023/02/09 05:37:43;;;;;;;16.37;13.47;;;-1.50;75.00;;;;;;5012233;28;20182;-87
2023/02/09 05:40:09;;;;;;;17.37;14.50;;;-1.50;75.00;;;;;;5013235;28;20193;-87
2023/02/09 05:42:35;;;;;;;20.73;14.90;;;-1.50;75.10;;;;;;5018316;28;20174;-88
2023/02/09 05:45:00;;;;;;;22.27;15.60;;;-1.60;72.80;;;;;;5019479;28;20307;-88
2023/02/09 05:47:26;;;;;;;22.23;15.30;;;-2.00;74.10;;;;;;5026749;28;20185;-87
2023/02/09 05:49:52;;;;;;;27.97;16.13;;;-2.10;76.90;;;;;;5031655;28;20250;-87
2023/02/09 05:52:18;;;;;;;19.67;14.37;;;-2.10;77.80;;;;;;5032037;28;20219;-86
2023/02/09 05:54:45;;;;;;;18.57;14.47;;;-2.30;77.00;;;;;;5031333;28;20188;-86
2023/02/09 05:57:11;;;;;;;17.10;14.20;;;-2.10;78.90;;;;;;5020281;28;20232;-87
2023/02/09 05:59:36;;;;;;;20.70;15.17;;;-2.00;78.80;;;;;;5011089;28;20667;-87
2023/02/09 06:02:02;;;;;;;19.57;15.00;;;-2.00;77.90;;;;;;5001435;28;20666;-88
2023/02/09 06:04:28;;;;;;;16.83;14.23;;;-1.90;77.70;;;;;;5012850;28;20655;-87
2023/02/09 06:06:54;;;;;;;19.83;15.90;;;-1.90;76.70;;;;;;5010534;28;20188;-87
2023/02/09 06:09:19;;;;;;;19.80;14.50;;;-1.80;77.20;;;;;;5008894;28;20193;-89
2023/02/09 06:11:46;;;;;;;18.83;15.40;;;-1.80;76.90;;;;;;5010362;28;20220;-88
2023/02/09 06:14:11;;;;;;;18.23;13.90;;;-1.70;76.20;;;;;;5011992;28;20192;-88
2023/02/09 06:16:39;;;;;;;22.33;15.47;;;-1.70;76.20;;;;;;5012125;28;20212;-87
2023/02/09 06:19:05;;;;;;;16.77;13.43;;;-1.70;76.00;;;;;;5011570;28;20194;-87
2023/02/09 06:21:31;;;;;;;19.07;13.73;;;-1.70;75.50;;;;;;5011611;28;20215;-89
2023/02/09 06:23:57;;;;;;;19.67;14.37;;;-1.70;75.50;;;;;;5015290;28;20197;-87
2023/02/09 06:26:23;;;;;;;20.70;14.57;;;-1.70;76.30;;;;;;5022317;28;20513;-90
2023/02/09 06:28:48;;;;;;;19.07;15.23;;;-1.70;76.20;;;;;;5017118;28;20189;-89
2023/02/09 06:31:14;;;;;;;28.97;21.27;;;-1.70;76.90;;;;;;5013165;28;20307;-87
2023/02/09 06:33:39;;;;;;;24.80;19.77;;;-1.80;78.20;;;;;;5011915;28;20312;-86
2023/02/09 06:36:06;;;;;;;24.20;19.20;;;-1.90;79.10;;;;;;5016963;28;20655;-88
2023/02/09 06:38:33;;;;;;;21.93;15.47;;;-1.80;79.70;;;;;;5016092;28;20185;-88
2023/02/09 06:40:59;;;;;;;20.77;15.30;;;-2.00;75.30;;;;;;5009890;28;20221;-87
2023/02/09 06:43:25;;;;;;;23.47;15.67;;;-2.10;76.80;;;;;;5013522;28;20193;-88
2023/02/09 06:45:51;;;;;;;24.60;17.17;;;-2.20;76.50;;;;;;5012145;28;20801;-87
2023/02/09 06:48:17;;;;;;;24.90;17.27;;;-2.20;77.90;;;;;;5014439;28;20184;-86
2023/02/09 06:50:42;;;;;;;26.50;16.77;;;-2.10;79.00;;;;;;5014553;28;20217;-90
2023/02/09 06:53:08;;;;;;;24.00;15.80;;;-2.00;78.80;;;;;;5014286;28;20268;-85
2023/02/09 06:55:34;;;;;;;18.30;15.53;;;-1.90;77.90;;;;;;5012926;28;20193;-88
2023/02/09 06:58:00;;;;;;;25.53;18.40;;;-1.90;77.60;;;;;;5014092;28;20194;-87
2023/02/09 07:00:26;;;;;;;19.50;15.70;;;-1.80;77.60;;;;;;5013546;28;20274;-89
2023/02/09 07:02:52;;;;;;;21.87;16.73;;;-1.70;77.40;;;;;;5015353;28;20198;-89
2023/02/09 07:05:18;;;;;;;22.63;17.43;;;-1.70;76.80;;;;;;5014817;28;20602;-88
2023/02/09 07:07:45;;;;;;;26.87;17.07;;;-1.70;75.70;;;;;;5020279;28;20730;-87
2023/02/09 07:10:13;;;;;;;21.17;16.40;;;-1.70;76.20;;;;;;5017551;28;20181;-89
2023/02/09 07:12:45;;;;;;;24.30;19.03;;;-1.60;75.80;;;;;;5013962;28;21073;-87
2023/02/09 07:15:12;;;;;;;28.97;18.47;;;-1.70;75.80;;;;;;5016657;28;20204;-87
2023/02/09 07:17:38;;;;;;;25.33;18.07;;;-1.90;75.90;;;;;;5021151;28;20676;-88
2023/02/09 07:20:04;;;;;;;32.90;17.40;;;-1.80;77.10;;;;;;5014450;28;20200;-84
2023/02/09 07:22:30;;;;;;;34.33;21.10;;;-1.80;77.20;;;;;;5012523;28;20260;-88
2023/02/09 07:24:56;;;;;;;27.83;18.67;;;-1.80;75.70;;;;;;5017799;28;20273;-87
2023/02/09 07:27:21;;;;;;;32.03;17.13;;;-2.00;75.20;;;;;;5018631;28;21214;-87
2023/02/09 07:29:47;;;;;;;24.57;15.77;;;-2.10;76.20;;;;;;5016264;28;20744;-89
2023/02/09 07:32:13;;;;;;;27.10;18.97;;;-2.00;78.10;;;;;;5012461;28;20224;-86
2023/02/09 07:34:38;;;;;;;26.70;17.47;;;-1.90;77.90;;;;;;5014566;28;20241;-87
2023/02/09 07:37:05;;;;;;;29.13;19.60;;;-1.90;78.30;;;;;;5011797;28;20186;-86
2023/02/09 07:39:31;;;;;;;24.10;18.63;;;-1.80;76.80;;;;;;5013212;28;20189;-87
2023/02/09 07:41:57;;;;;;;19.87;16.73;;;-2.00;76.00;;;;;;5013001;28;20217;-86
2023/02/09 07:44:24;;;;;;;28.43;17.70;;;-2.10;78.00;;;;;;5012139;28;20197;-86
2023/02/09 07:46:50;;;;;;;28.77;17.20;;;-2.10;78.90;;;;;;5016329;28;20201;-87
2023/02/09 07:49:16;;;;;;;37.60;22.03;;;-2.10;80.20;;;;;;5016757;28;20189;-88
2023/02/09 07:51:42;;;;;;;35.30;22.53;;;-1.90;80.60;;;;;;5009627;28;20276;-85
2023/02/09 07:54:12;;;;;;;35.50;25.37;;;-1.90;80.30;;;;;;5018105;28;20772;-89
2023/02/09 07:56:38;;;;;;;28.90;20.33;;;-1.70;79.30;;;;;;5021398;28;20695;-88
2023/02/09 07:59:05;;;;;;;24.37;16.80;;;-1.60;78.70;;;;;;5014604;28;20201;-86
2023/02/09 08:01:31;;;;;;;27.10;17.77;;;-1.60;79.40;;;;;;5014211;28;20637;-85
2023/02/09 08:03:58;;;;;;;27.30;18.47;;;-1.60;78.90;;;;;;5019842;28;20224;-85
2023/02/09 08:06:38;;;;;;;22.63;15.87;;;-1.60;78.80;;;;;;5017888;28;20650;-88
2023/02/09 08:09:05;;;;;;;23.43;15.33;;;-1.50;79.10;;;;;;5018103;28;20181;-87
2023/02/09 08:11:53;;;;;;;25.17;17.63;;;-1.40;78.70;;;;;;5020724;28;20205;-86
2023/02/09 08:14:35;;;;;;;22.27;17.30;;;-1.40;77.50;;;;;;5010284;28;20186;-87
2023/02/09 08:17:20;;;;;;;24.03;17.30;;;-1.30;77.70;;;;;;5039635;28;20223;-86
2023/02/09 08:19:57;;;;;;;30.57;17.50;;;-1.20;77.50;;;;;;5045339;28;20165;-89
2023/02/09 08:22:26;;;;;;;25.80;17.73;;;-1.20;77.50;;;;;;5038086;28;20284;-88
2023/02/09 08:24:52;;;;;;;27.17;18.27;;;-1.10;77.80;;;;;;5036140;28;20280;-85
2023/02/09 08:27:18;;;;;;;26.87;18.37;;;-1.10;77.80;;;;;;5037649;28;20236;-86
2023/02/09 08:29:44;;;;;;;27.37;17.10;;;-1.20;77.90;;;;;;5038588;28;20577;-87
2023/02/09 08:32:09;;;;;;;27.43;17.77;;;-1.20;78.40;;;;;;5037433;28;20213;-89
2023/02/09 08:34:35;;;;;;;23.27;16.77;;;-1.00;79.00;;;;;;5036210;28;20227;-89
2023/02/09 08:37:00;;;;;;;27.57;18.83;;;-1.10;79.30;;;;;;5055179;28;20176;-89
2023/02/09 08:39:26;;;;;;;22.63;17.60;;;-1.10;79.10;;;;;;5044298;28;20706;-87
2023/02/09 08:41:52;;;;;;;21.23;18.87;;;-1.20;80.50;;;;;;5041280;28;20212;-87
2023/02/09 08:44:17;;;;;;;22.43;19.40;;;-1.20;80.40;;;;;;5039798;28;20245;-86
2023/02/09 08:46:43;;;;;;;27.30;19.37;;;-1.30;81.70;;;;;;5037741;28;20251;-86
2023/02/09 08:49:08;;;;;;;21.03;17.27;;;-1.30;82.70;;;;;;5040436;28;20312;-86
2023/02/09 08:51:34;;;;;;;22.63;17.13;;;-1.20;84.30;;;;;;5039922;28;20251;-85
2023/02/09 08:54:00;;;;;;;23.20;18.57;;;-1.00;84.20;;;;;;5040154;28;20189;-86
2023/02/09 08:56:25;;;;;;;22.63;17.87;;;-0.90;83.30;;;;;;5036832;28;20193;-86
2023/02/09 08:58:51;;;;;;;24.00;18.10;;;-0.80;83.00;;;;;;5021087;28;20181;-88
2023/02/09 09:01:17;;;;;;;24.00;18.17;;;-0.70;82.20;;;;;;5020338;28;20209;-85
2023/02/09 09:03:43;;;;;;;22.87;17.40;;;-0.80;82.00;;;;;;5021127;28;20225;-85
2023/02/09 09:06:10;;;;;;;24.37;17.60;;;-0.70;82.90;;;;;;5036232;28;20650;-85
2023/02/09 09:08:37;;;;;;;21.00;17.27;;;-0.60;82.40;;;;;;5042875;28;20193;-87
2023/02/09 09:11:05;;;;;;;21.73;16.60;;;-0.70;83.50;;;;;;5043068;28;20675;-86
2023/02/09 09:13:31;;;;;;;25.17;19.57;;;-0.70;82.90;;;;;;5043519;28;20172;-86
2023/02/09 09:15:57;;;;;;;24.43;19.17;;;-1.00;84.40;;;;;;5043980;28;20177;-85
2023/02/09 09:18:23;;;;;;;23.73;18.47;;;-1.20;87.30;;;;;;5043901;28;20185;-86
2023/02/09 09:20:49;;;;;;;24.83;18.97;;;-1.30;89.20;;;;;;5044384;28;20212;-86
2023/02/09 09:23:15;;;;;;;22.50;16.93;;;-1.40;92.00;;;;;;5044227;28;20188;-86
2023/02/09 09:25:42;;;;;;;22.13;17.50;;;-1.30;90.20;;;;;;5044403;28;20300;-86
2023/02/09 09:28:08;;;;;;;21.00;17.73;;;-1.30;91.80;;;;;;5044188;28;20185;-86
2023/02/09 09:30:33;;;;;;;20.10;17.70;;;-1.10;91.70;;;;;;5043646;28;20303;-86
2023/02/09 09:32:59;;;;;;;21.57;18.03;;;-0.80;89.60;;;;;;5040564;28;20188;-88
2023/02/09 09:35:26;;;;;;;26.30;19.30;;;-0.70;83.90;;;;;;5039409;28;20173;-85
2023/02/09 09:37:54;;;;;;;21.00;17.67;;;-0.60;85.10;;;;;;5028566;28;20173;-86
2023/02/09 09:40:23;;;;;;;23.60;17.80;;;-0.40;83.90;;;;;;5044670;28;20165;-86
2023/02/09 09:42:55;;;;;;;22.73;17.73;;;-0.60;82.40;;;;;;5045273;28;20177;-85
2023/02/09 09:45:24;;;;;;;25.33;18.93;;;-0.60;83.30;;;;;;5046168;28;20204;-86
2023/02/09 09:47:50;;;;;;;24.40;19.40;;;-0.60;82.20;;;;;;5048218;28;20173;-85
2023/02/09 09:50:20;;;;;;;25.50;17.97;;;-0.30;79.00;;;;;;5048005;28;20245;-86
2023/02/09 09:52:51;;;;;;;24.63;18.87;;;-0.40;78.40;;;;;;5041746;28;20257;-84
2023/02/09 09:55:25;;;;;;;23.37;18.53;;;-0.60;79.60;;;;;;5039532;28;20185;-85
2023/02/09 09:57:53;;;;;;;22.57;18.77;;;-0.50;80.60;;;;;;5033191;28;20185;-84
2023/02/09 10:00:25;;;;;;;26.33;19.07;;;-0.40;80.10;;;;;;5045380;28;20239;-85
2023/02/09 10:02:52;;;;;;;26.33;20.17;;;-0.20;82.00;;;;;;5044996;28;20200;-85
2023/02/09 10:05:24;;;;;;;23.30;18.63;;;0.10;80.00;;;;;;5037381;28;20185;-84
2023/02/09 10:08:20;;;;;;;25.10;20.50;;;0.40;76.80;;;;;;5025945;28;20204;-86
2023/02/09 10:10:48;;;;;;;21.93;18.80;;;0.70;75.20;;;;;;5038523;28;20262;-85
2023/02/09 10:13:23;;;;;;;21.77;18.80;;;1.00;72.50;;;;;;5045298;28;20197;-85
2023/02/09 10:15:52;;;;;;;23.70;18.97;;;1.10;72.00;;;;;;5048132;28;20191;-86
2023/02/09 10:18:24;;;;;;;25.53;19.40;;;1.10;70.80;;;;;;5046746;28;20204;-86
2023/02/09 10:20:54;;;;;;;61.07;22.30;;;1.00;71.00;;;;;;5047053;28;20228;-84
2023/02/09 10:23:29;;;;;;;26.30;18.17;;;1.30;69.70;;;;;;5042803;28;20173;-86
2023/02/09 10:26:07;;;;;;;25.47;18.67;;;1.20;70.30;;;;;;5016936;28;20218;-87
2023/02/09 10:28:42;;;;;;;27.20;19.33;;;1.50;68.70;;;;;;5025919;28;20436;-86
2023/02/09 10:31:32;;;;;;;21.60;17.77;;;1.50;69.80;;;;;;5024326;28;20626;-87
2023/02/09 10:34:09;;;;;;;24.63;18.20;;;1.60;68.70;;;;;;5018753;28;20186;-86
2023/02/09 10:36:52;;;;;;;23.07;19.13;;;1.80;68.00;;;;;;5022490;28;20177;-85
2023/02/09 10:39:19;;;;;;;24.90;19.47;;;1.90;68.80;;;;;;5022748;28;20258;-85
2023/02/09 10:41:48;;;;;;;25.43;20.53;;;1.90;67.50;;;;;;5028151;28;20189;-85
2023/02/09 10:44:37;;;;;;;23.43;19.50;;;2.00;67.00;;;;;;5022955;28;20188;-85
2023/02/09 10:47:11;;;;;;;30.87;20.33;;;2.20;66.10;;;;;;5018582;28;20273;-86
2023/02/09 10:49:41;;;;;;;25.33;21.23;;;2.20;65.60;;;;;;5022147;28;20205;-85
2023/02/09 10:52:16;;;;;;;26.20;20.73;;;2.20;64.60;;;;;;5020726;28;20224;-84
2023/02/09 10:54:58;;;;;;;29.70;21.83;;;2.50;64.40;;;;;;5024059;28;20216;-84
2023/02/09 10:57:33;;;;;;;26.37;21.33;;;2.20;66.10;;;;;;5026770;28;20250;-84
2023/02/09 11:00:20;;;;;;;29.13;21.03;;;2.30;65.50;;;;;;5016772;28;20192;-85
2023/02/09 11:02:54;;;;;;;26.17;20.30;;;2.70;64.30;;;;;;5025204;28;20213;-85
2023/02/09 11:05:19;;;;;;;26.53;21.97;;;2.50;64.40;;;;;;5027912;28;20205;-86
2023/02/09 11:07:50;;;;;;;24.80;20.67;;;2.60;66.10;;;;;;5031410;28;20188;-86
2023/02/09 11:10:16;;;;;;;28.53;21.47;;;2.90;63.90;;;;;;5021379;28;20179;-85
2023/02/09 11:12:42;;;;;;;29.17;20.97;;;3.20;63.50;;;;;;5023161;28;20205;-87
2023/02/09 11:15:20;;;;;;;44.33;39.47;;;3.60;61.40;;;;;;5017482;28;20233;-85
2023/02/09 11:18:13;;;;;;;24.33;20.60;;;3.80;61.00;;;;;;5020521;28;20169;-85
2023/02/09 11:20:48;;;;;;;26.20;21.87;;;4.00;59.10;;;;;;5023544;28;20208;-86
2023/02/09 11:23:34;;;;;;;25.23;20.63;;;4.00;59.70;;;;;;5019993;28;20216;-85
2023/02/09 11:26:07;;;;;;;25.77;21.07;;;4.20;58.50;;;;;;5014458;28;20205;-85
2023/02/09 11:28:51;;;;;;;25.93;20.53;;;4.40;58.80;;;;;;5020659;28;20204;-86
2023/02/09 11:31:29;;;;;;;27.80;21.60;;;4.60;57.80;;;;;;5018175;28;20729;-85
2023/02/09 11:34:17;;;;;;;23.60;20.97;;;4.40;58.10;;;;;;5017200;28;20184;-87
2023/02/09 11:36:49;;;;;;;25.53;21.33;;;4.40;58.90;;;;;;5015873;28;20181;-86
2023/02/09 11:39:40;;;;;;;24.07;21.57;;;4.50;58.10;;;;;;5016317;28;20193;-86
2023/02/09 11:45:03;;;;;;;30.37;24.90;;;5.00;57.50;;;;;;5014953;28;20211;-86
2023/02/09 11:47:49;;;;;;;24.83;22.13;;;5.30;56.80;;;;;;5018706;28;20248;-85
2023/02/09 11:50:37;;;;;;;30.77;22.37;;;5.10;55.50;;;;;;5012206;28;20387;-85
2023/02/09 11:53:29;;;;;;;29.70;23.27;;;4.70;57.60;;;;;;5024379;28;20190;-88
2023/02/09 11:55:57;;;;;;;27.13;21.70;;;5.10;54.70;;;;;;5020772;28;20185;-87
2023/02/09 11:58:41;;;;;;;25.50;22.13;;;5.30;54.50;;;;;;5018831;28;20185;-85
2023/02/09 12:01:22;;;;;;;26.70;21.40;;;5.10;54.10;;;;;;5024127;28;20228;-85
2023/02/09 12:04:09;;;;;;;29.97;22.57;;;5.00;54.20;;;;;;5023771;28;20197;-85
2023/02/09 12:06:39;;;;;;;26.23;21.97;;;5.10;55.40;;;;;;5024363;28;20236;-86
2023/02/09 12:09:29;;;;;;;26.90;22.80;;;5.00;54.00;;;;;;5039769;28;20196;-86
2023/02/09 12:12:04;;;;;;;26.47;22.53;;;4.90;54.10;;;;;;5040139;28;20442;-86
2023/02/09 12:14:29;;;;;;;25.03;22.33;;;5.00;55.10;;;;;;5039309;28;20188;-86
2023/02/09 12:17:07;;;;;;;24.20;21.17;;;5.10;53.50;;;;;;5031359;28;20185;-85
2023/02/09 12:19:36;;;;;;;30.00;23.20;;;4.90;55.00;;;;;;5044131;28;20173;-87
2023/02/09 12:22:32;;;;;;;24.50;21.43;;;4.70;55.30;;;;;;5043684;28;20279;-86
2023/02/09 12:25:19;;;;;;;27.63;22.97;;;5.20;55.40;;;;;;5045498;28;20282;-86
2023/02/09 12:28:36;;;;;;;27.20;22.37;;;5.50;54.70;;;;;;5047938;28;20201;-87
2023/02/09 12:31:04;;;;;;;29.80;22.73;;;5.40;54.60;;;;;;5042682;28;20240;-86
2023/02/09 12:33:56;;;;;;;29.10;24.10;;;4.90;56.20;;;;;;5053565;28;20182;-85
2023/02/09 12:36:30;;;;;;;28.43;23.20;;;5.20;55.50;;;;;;5045782;28;20201;-85
2023/02/09 12:38:56;;;;;;;28.87;23.57;;;5.30;56.80;;;;;;5044346;28;20183;-86
2023/02/09 12:41:27;;;;;;;27.37;24.10;;;5.90;54.20;;;;;;5043233;28;20217;-85
2023/02/09 12:44:08;;;;;;;26.43;23.57;;;6.40;53.20;;;;;;5035113;28;20177;-86
2023/02/09 12:46:53;;;;;;;28.67;24.57;;;6.90;51.30;;;;;;5038713;28;20200;-85
2023/02/09 12:49:20;;;;;;;27.03;23.17;;;7.40;49.10;;;;;;5047240;28;20177;-85
2023/02/09 12:51:49;;;;;;;30.20;24.37;;;7.70;47.70;;;;;;5045595;28;20213;-85
2023/02/09 12:54:30;;;;;;;27.87;24.87;;;7.90;47.30;;;;;;5045160;28;20181;-83
2023/02/09 12:57:19;;;;;;;27.60;24.17;;;7.70;47.10;;;;;;5043625;28;20189;-85
2023/02/09 13:00:02;;;;;;;27.60;24.60;;;7.90;46.80;;;;;;5044588;28;20580;-85
2023/02/09 13:02:54;;;;;;;27.33;24.43;;;7.90;47.10;;;;;;5043948;28;20224;-85